Time;durP1;ratioP1;P1;durP2;ratioP2;P2;SDS_P1;SDS_P2;PMS_P1;PMS_P2;Temp;Humidity;BMP_temperature;BMP_pressure;BME280_temperature;BME280_humidity;BME280_pressure;Samples;Min_cycle;Max_cycle;Signal;HPM_P1;HPM_P2
2022/02/20 00:01:20;;;;;;;0.20;0.10;;;;;;;7.32;83.54;99892.03;5016453;28;20449;-51
2022/02/20 00:03:47;;;;;;;0.20;0.10;;;;;;;7.30;83.25;99885.91;5016693;28;20803;-50
2022/02/20 00:06:16;;;;;;;0.30;0.20;;;;;;;7.30;83.61;99885.03;5028926;28;20456;-50
2022/02/20 00:15:38;;;;;;;0.20;0.20;;;;;;;7.32;83.35;99876.16;5026380;28;20908;-50
2022/02/20 00:18:05;;;;;;;0.20;0.10;;;;;;;7.30;83.35;99870.03;5035015;28;20475;-50
2022/02/20 00:20:32;;;;;;;0.20;0.10;;;;;;;7.31;84.45;99869.13;5030425;28;20514;-50
2022/02/20 00:23:01;;;;;;;0.23;0.10;;;;;;;7.32;83.51;99875.28;5035625;28;20505;-50
2022/02/20 00:25:34;;;;;;;0.27;0.17;;;;;;;7.27;84.58;99882.47;5035620;28;20458;-50
2022/02/20 00:28:02;;;;;;;0.20;0.13;;;;;;;7.32;84.07;99880.59;5035433;28;20463;-51
2022/02/20 00:30:29;;;;;;;0.20;0.10;;;;;;;7.38;84.60;99891.00;5023334;28;20506;-50
2022/02/20 00:32:58;;;;;;;0.30;0.10;;;;;;;7.37;85.17;99876.06;5034865;28;20941;-50
2022/02/20 00:35:29;;;;;;;0.20;0.10;;;;;;;7.44;85.64;99898.81;5035796;28;20444;-50
2022/02/20 00:37:57;;;;;;;0.20;0.10;;;;;;;7.42;87.16;99909.44;5015993;28;20526;-50
2022/02/20 00:40:24;;;;;;;0.23;0.10;;;;;;;7.37;89.64;99921.88;5016875;28;20448;-50
2022/02/20 00:42:51;;;;;;;0.20;0.20;;;;;;;7.38;89.91;99931.53;5016685;28;20448;-50
2022/02/20 00:45:18;;;;;;;0.30;0.20;;;;;;;7.43;89.80;99926.16;5027002;28;20453;-51
2022/02/20 00:47:44;;;;;;;0.30;0.13;;;;;;;7.49;88.78;99915.44;5027523;28;20475;-50
2022/02/20 00:50:11;;;;;;;0.30;0.10;;;;;;;7.49;88.73;99919.88;5015470;28;20452;-50
2022/02/20 00:52:38;;;;;;;0.20;0.20;;;;;;;7.55;89.43;99931.19;5030307;28;20488;-50
2022/02/20 00:55:05;;;;;;;0.30;0.20;;;;;;;7.53;88.85;99925.03;5019693;28;20499;-50
2022/02/20 00:57:33;;;;;;;0.20;0.20;;;;;;;7.55;89.38;99941.78;5021323;28;20504;-50
2022/02/20 01:00:00;;;;;;;0.20;0.10;;;;;;;7.60;88.61;99937.25;5017239;28;20436;-50
2022/02/20 01:02:28;;;;;;;0.20;0.20;;;;;;;7.61;88.75;99931.03;5021053;28;20523;-51
2022/02/20 01:04:54;;;;;;;0.20;0.10;;;;;;;7.68;88.09;99945.03;5024079;28;20505;-51
2022/02/20 01:07:22;;;;;;;0.20;0.20;;;;;;;7.61;88.92;99948.69;5034774;28;20546;-50
2022/02/20 01:09:49;;;;;;;0.20;0.10;;;;;;;7.68;88.11;99947.66;5020528;28;20469;-50
2022/02/20 01:12:18;;;;;;;0.20;0.10;;;;;;;7.67;88.84;99954.69;5034720;28;20487;-51
2022/02/20 01:14:45;;;;;;;0.20;0.10;;;;;;;7.63;89.26;99960.09;5034527;28;20886;-50
2022/02/20 01:17:14;;;;;;;0.20;0.10;;;;;;;7.56;93.51;99947.94;5034850;28;20529;-51
2022/02/20 01:19:41;;;;;;;0.20;0.20;;;;;;;7.44;96.56;99951.72;5030704;28;20452;-51
2022/02/20 01:22:10;;;;;;;0.30;0.20;;;;;;;7.38;97.99;99954.47;5014804;28;20942;-50
2022/02/20 01:24:37;;;;;;;0.30;0.20;;;;;;;7.25;99.32;99961.78;5028141;28;20488;-50
2022/02/20 01:27:03;;;;;;;0.30;0.17;;;;;;;7.38;99.25;99949.16;5025888;28;20538;-51
2022/02/20 01:29:31;;;;;;;0.30;0.20;;;;;;;7.27;100.00;99957.34;5034468;28;20447;-50
2022/02/20 01:31:57;;;;;;;0.20;0.10;;;;;;;7.28;100.00;99953.81;5034108;28;20479;-51
2022/02/20 01:34:24;;;;;;;0.30;0.20;;;;;;;7.32;100.00;99962.53;5034173;28;20501;-50
2022/02/20 01:36:51;;;;;;;0.20;0.10;;;;;;;7.31;100.00;99960.78;5017071;28;20484;-50
2022/02/20 01:39:17;;;;;;;0.30;0.20;;;;;;;7.30;100.00;99959.94;5027885;28;20523;-50
2022/02/20 01:41:44;;;;;;;0.20;0.20;;;;;;;7.32;100.00;99947.53;5026234;28;20476;-50
2022/02/20 01:44:10;;;;;;;0.30;0.10;;;;;;;7.18;100.00;99949.59;5020832;28;20521;-50
2022/02/20 01:46:37;;;;;;;0.30;0.20;;;;;;;7.32;100.00;99936.09;5037435;28;20471;-51
2022/02/20 01:49:04;;;;;;;0.20;0.10;;;;;;;7.21;100.00;99957.47;5014946;28;20463;-50
2022/02/20 01:51:31;;;;;;;0.20;0.20;;;;;;;7.15;100.00;99956.72;5026115;28;20992;-51
2022/02/20 01:53:58;;;;;;;0.20;0.10;;;;;;;7.13;100.00;99960.28;5027833;28;20867;-51
2022/02/20 01:56:24;;;;;;;0.23;0.10;;;;;;;7.18;100.00;99960.16;5026763;28;20448;-51
2022/02/20 01:58:51;;;;;;;0.20;0.10;;;;;;;7.26;100.00;99960.00;5033804;28;20452;-51
2022/02/20 02:01:17;;;;;;;0.20;0.10;;;;;;;7.24;100.00;99960.03;5021374;28;20499;-51
2022/02/20 02:03:44;;;;;;;0.20;0.13;;;;;;;7.24;100.00;99957.38;5032769;28;20455;-51
2022/02/20 02:06:11;;;;;;;1.33;1.23;;;;;;;7.29;100.00;99958.19;5032674;28;21018;-51
2022/02/20 02:08:39;;;;;;;0.20;0.10;;;;;;;7.22;100.00;99975.06;5027897;28;20484;-50
2022/02/20 02:11:05;;;;;;;0.20;0.10;;;;;;;7.28;100.00;99963.50;5019372;28;20452;-51
2022/02/20 02:13:32;;;;;;;0.20;0.10;;;;;;;7.26;100.00;99981.16;5014117;28;20511;-50
2022/02/20 02:15:59;;;;;;;0.20;0.10;;;;;;;7.31;100.00;99985.47;5033371;28;20447;-50
2022/02/20 02:18:25;;;;;;;0.20;0.10;;;;;;;7.38;100.00;99970.31;5014127;28;20531;-50
2022/02/20 02:20:52;;;;;;;0.20;0.10;;;;;;;7.42;100.00;99975.53;5014326;28;20472;-51
2022/02/20 02:23:21;;;;;;;0.20;0.10;;;;;;;7.42;100.00;99980.81;5028255;28;20478;-50
2022/02/20 02:25:50;;;;;;;0.20;0.10;;;;;;;7.43;100.00;99974.63;5020272;28;20448;-50
2022/02/20 02:28:17;;;;;;;0.20;0.10;;;;;;;7.38;100.00;99979.13;5026178;28;20473;-51
2022/02/20 02:30:45;;;;;;;0.20;0.20;;;;;;;7.45;100.00;99969.31;5013351;28;20496;-50
2022/02/20 02:33:12;;;;;;;0.30;0.20;;;;;;;7.52;100.00;99965.63;5021828;28;20517;-51
2022/02/20 02:35:39;;;;;;;0.30;0.30;;;;;;;7.54;100.00;99979.69;5027154;28;20456;-51
2022/02/20 02:38:05;;;;;;;0.20;0.13;;;;;;;7.60;100.00;99981.34;5024571;28;20515;-51
2022/02/20 02:40:33;;;;;;;0.20;0.10;;;;;;;7.56;100.00;99983.19;5026429;28;20459;-51
2022/02/20 02:42:59;;;;;;;0.30;0.20;;;;;;;7.51;100.00;99976.22;5013533;28;20476;-50
2022/02/20 02:45:27;;;;;;;0.20;0.20;;;;;;;7.56;100.00;99980.53;5015613;28;20879;-51
2022/02/20 02:47:54;;;;;;;0.30;0.13;;;;;;;7.61;100.00;99996.28;5032515;28;21135;-51
2022/02/20 02:50:25;;;;;;;0.30;0.20;;;;;;;7.55;100.00;99999.09;5029375;28;20460;-51
2022/02/20 02:52:51;;;;;;;0.30;0.20;;;;;;;7.65;100.00;100001.47;5029649;28;20907;-51
2022/02/20 02:55:18;;;;;;;0.27;0.20;;;;;;;7.65;100.00;100006.78;5019113;28;20505;-51
2022/02/20 02:57:44;;;;;;;0.20;0.20;;;;;;;7.78;99.89;100002.09;5022052;28;20504;-51
2022/02/20 03:00:11;;;;;;;0.23;0.20;;;;;;;7.72;100.00;99996.94;5029847;28;20506;-51
2022/02/20 03:02:39;;;;;;;0.20;0.10;;;;;;;7.67;100.00;100007.59;5022017;28;20870;-51
2022/02/20 03:05:06;;;;;;;0.27;0.10;;;;;;;7.54;100.00;99992.94;5030226;28;20494;-51
2022/02/20 03:07:33;;;;;;;0.20;0.10;;;;;;;7.59;100.00;100004.28;5021622;28;20499;-51
2022/02/20 03:09:59;;;;;;;0.20;0.10;;;;;;;7.67;100.00;99996.16;5029618;28;20456;-51
2022/02/20 03:12:26;;;;;;;0.20;0.20;;;;;;;7.70;100.00;100007.56;5020883;28;20527;-51
2022/02/20 03:14:52;;;;;;;0.30;0.10;;;;;;;7.70;100.00;100011.97;5012749;28;20941;-51
2022/02/20 03:17:20;;;;;;;0.20;0.20;;;;;;;7.68;100.00;100011.16;5018716;28;20468;-50
2022/02/20 03:19:46;;;;;;;0.43;0.43;;;;;;;7.62;100.00;100021.84;5014356;28;20452;-51
2022/02/20 03:22:13;;;;;;;0.20;0.10;;;;;;;7.69;100.00;100021.69;5024137;28;20471;-50
2022/02/20 03:24:40;;;;;;;0.20;0.20;;;;;;;7.65;100.00;100027.94;5032290;28;20502;-51
2022/02/20 03:27:07;;;;;;;0.20;0.20;;;;;;;7.72;100.00;100026.03;5032282;28;20472;-50
2022/02/20 03:29:33;;;;;;;0.20;0.10;;;;;;;7.71;100.00;100013.72;5014003;28;20530;-51
2022/02/20 03:32:00;;;;;;;0.20;0.10;;;;;;;7.69;100.00;100029.63;5024199;28;20531;-51
2022/02/20 03:34:26;;;;;;;0.30;0.10;;;;;;;7.68;100.00;100033.19;5013600;28;20499;-51
2022/02/20 03:36:53;;;;;;;0.20;0.10;;;;;;;7.72;100.00;100049.84;5029250;28;21030;-51
2022/02/20 03:39:20;;;;;;;0.20;0.20;;;;;;;7.67;100.00;100046.41;5032066;28;20479;-50
2022/02/20 03:41:46;;;;;;;0.20;0.20;;;;;;;7.69;100.00;100052.56;5032071;28;20521;-51
2022/02/20 03:44:13;;;;;;;0.20;0.10;;;;;;;7.77;100.00;100053.25;5031700;28;20833;-51
2022/02/20 03:46:40;;;;;;;0.27;0.20;;;;;;;7.76;100.00;100045.38;5032588;28;20467;-51
2022/02/20 03:49:07;;;;;;;0.20;0.10;;;;;;;7.68;100.00;100050.84;5026312;28;20457;-51
2022/02/20 03:51:33;;;;;;;0.20;0.10;;;;;;;7.72;100.00;100050.72;5024802;28;20783;-51
2022/02/20 03:54:00;;;;;;;0.20;0.20;;;;;;;7.67;100.00;100055.22;5018399;28;20498;-51
2022/02/20 03:56:26;;;;;;;0.20;0.10;;;;;;;7.75;100.00;100060.38;5016101;28;20457;-51
2022/02/20 03:58:53;;;;;;;0.30;0.10;;;;;;;7.67;100.00;100055.22;5025242;28;20457;-51
2022/02/20 04:01:20;;;;;;;0.20;0.17;;;;;;;7.63;100.00;100055.31;5025094;28;20451;-51
2022/02/20 04:03:46;;;;;;;0.20;0.20;;;;;;;7.65;100.00;100064.97;5025831;28;20488;-51
2022/02/20 04:06:13;;;;;;;0.50;0.50;;;;;;;7.50;100.00;100067.91;5024222;28;20506;-51
2022/02/20 04:08:40;;;;;;;0.30;0.20;;;;;;;7.48;100.00;100066.22;5018552;28;20448;-51
2022/02/20 04:11:06;;;;;;;0.20;0.20;;;;;;;7.49;100.00;100073.25;5032016;28;21023;-51
2022/02/20 04:13:33;;;;;;;0.20;0.20;;;;;;;7.47;100.00;100085.63;5023008;28;20481;-51
2022/02/20 04:16:00;;;;;;;0.30;0.20;;;;;;;7.49;100.00;100094.41;5014470;28;20452;-51
2022/02/20 04:18:27;;;;;;;0.20;0.13;;;;;;;7.43;100.00;100087.47;5031772;28;20845;-51
2022/02/20 04:20:53;;;;;;;0.23;0.10;;;;;;;7.40;100.00;100090.16;5020950;28;20472;-50
2022/02/20 04:23:20;;;;;;;0.30;0.20;;;;;;;7.38;100.00;100089.31;5028862;28;20443;-51
2022/02/20 04:25:46;;;;;;;0.20;0.20;;;;;;;7.32;100.00;100087.66;5031325;28;20471;-50
2022/02/20 04:28:13;;;;;;;0.60;0.60;;;;;;;7.43;100.00;100085.69;5018852;28;20472;-51
2022/02/20 04:30:40;;;;;;;0.20;0.10;;;;;;;7.34;100.00;100088.50;5018185;28;20452;-51
2022/02/20 04:33:07;;;;;;;0.20;0.10;;;;;;;7.28;100.00;100093.91;5031716;28;20533;-50
2022/02/20 04:35:33;;;;;;;0.20;0.10;;;;;;;7.39;100.00;100094.56;5027534;28;20449;-51
2022/02/20 04:38:00;;;;;;;0.30;0.20;;;;;;;7.32;100.00;100092.09;5028006;28;20492;-50
2022/02/20 04:40:27;;;;;;;0.20;0.10;;;;;;;7.20;100.00;100093.16;5016509;28;20452;-50
2022/02/20 04:42:54;;;;;;;0.30;0.17;;;;;;;7.16;100.00;100091.50;5031007;28;20482;-50
2022/02/20 04:45:21;;;;;;;0.97;0.97;;;;;;;7.17;100.00;100098.53;5036775;28;20498;-50
2022/02/20 04:47:47;;;;;;;0.20;0.10;;;;;;;7.13;100.00;100104.78;5038033;28;20571;-50
2022/02/20 04:50:14;;;;;;;0.20;0.10;;;;;;;7.04;100.00;100112.84;5028257;28;20486;-50
2022/02/20 04:52:41;;;;;;;0.20;0.10;;;;;;;7.05;100.00;100115.47;5030483;28;20522;-50
2022/02/20 04:55:08;;;;;;;0.20;0.10;;;;;;;6.96;100.00;100118.25;5019565;28;20876;-50
2022/02/20 04:57:36;;;;;;;0.20;0.10;;;;;;;6.95;100.00;100113.00;5032584;28;20530;-50
2022/02/20 05:00:09;;;;;;;0.20;0.20;;;;;;;6.80;100.00;100125.56;5022228;28;20528;-50
2022/02/20 05:02:36;;;;;;;0.20;0.13;;;;;;;6.86;100.00;100115.81;5025677;28;20486;-50
2022/02/20 05:05:03;;;;;;;0.20;0.13;;;;;;;6.88;100.00;100111.38;5034813;28;20452;-50
2022/02/20 05:07:29;;;;;;;0.30;0.10;;;;;;;6.93;100.00;100105.09;5034744;28;20471;-50
2022/02/20 05:09:56;;;;;;;0.30;0.20;;;;;;;6.94;100.00;100098.03;5017092;28;20499;-50
2022/02/20 05:12:23;;;;;;;0.20;0.20;;;;;;;7.09;100.00;100098.63;5025640;28;20534;-50
2022/02/20 05:14:49;;;;;;;0.20;0.20;;;;;;;7.18;100.00;100091.47;5034019;28;20455;-50
2022/02/20 05:17:17;;;;;;;0.20;0.20;;;;;;;7.18;100.00;100091.47;5034318;28;20471;-50
2022/02/20 05:19:44;;;;;;;0.20;0.10;;;;;;;7.26;100.00;100081.59;5034551;28;20451;-50
2022/02/20 05:22:10;;;;;;;0.20;0.20;;;;;;;7.36;100.00;100097.28;5034723;28;20443;-50
2022/02/20 05:24:37;;;;;;;0.20;0.13;;;;;;;7.38;100.00;100098.09;5015836;28;21012;-50
2022/02/20 05:27:04;;;;;;;0.20;0.20;;;;;;;7.41;100.00;100102.50;5021772;28;20546;-50
2022/02/20 05:29:30;;;;;;;0.20;0.10;;;;;;;7.39;100.00;100117.50;5019559;28;20452;-50
2022/02/20 05:31:57;;;;;;;0.20;0.10;;;;;;;7.39;100.00;100114.84;5022684;28;20473;-50
2022/02/20 05:34:23;;;;;;;0.20;0.20;;;;;;;7.38;100.00;100116.63;5019807;28;20448;-50
2022/02/20 05:36:50;;;;;;;0.20;0.10;;;;;;;7.38;100.00;100119.25;5034163;28;20510;-50
2022/02/20 05:39:16;;;;;;;0.20;0.10;;;;;;;7.46;100.00;100113.84;5015312;28;20488;-50
2022/02/20 05:41:43;;;;;;;0.20;0.17;;;;;;;7.52;100.00;100104.91;5016556;28;20862;-50
2022/02/20 05:44:10;;;;;;;0.20;0.10;;;;;;;7.59;100.00;100096.84;5031648;28;20459;-50
2022/02/20 05:46:36;;;;;;;0.20;0.20;;;;;;;7.59;100.00;100095.97;5044044;28;20513;-50
2022/02/20 05:49:04;;;;;;;0.20;0.20;;;;;;;7.54;100.00;100092.53;5021640;28;20517;-50
2022/02/20 05:51:32;;;;;;;0.20;0.20;;;;;;;7.43;100.00;100093.63;5027063;28;20963;-50
2022/02/20 05:53:58;;;;;;;0.20;0.20;;;;;;;7.45;100.00;100096.25;5027831;28;20492;-50
2022/02/20 05:56:25;;;;;;;0.20;0.20;;;;;;;7.33;100.00;100096.47;5017234;28;20451;-50
2022/02/20 05:58:51;;;;;;;0.20;0.10;;;;;;;7.45;100.00;100096.25;5033503;28;20479;-50
2022/02/20 06:01:18;;;;;;;0.20;0.20;;;;;;;7.55;100.00;100091.66;5031094;28;20467;-50
2022/02/20 06:03:45;;;;;;;0.20;0.10;;;;;;;7.53;100.00;100081.06;5033432;28;20945;-50
2022/02/20 06:06:11;;;;;;;0.20;0.10;;;;;;;7.58;100.00;100083.66;5033459;28;20455;-50
2022/02/20 06:08:38;;;;;;;0.20;0.20;;;;;;;7.66;100.00;100093.16;5033446;28;20452;-51
2022/02/20 06:11:04;;;;;;;0.20;0.10;;;;;;;7.71;100.00;100078.09;5020873;28;20507;-50
2022/02/20 06:13:31;;;;;;;0.30;0.20;;;;;;;7.76;100.00;100093.84;5019748;28;20516;-50
2022/02/20 06:15:57;;;;;;;0.20;0.17;;;;;;;7.72;100.00;100085.13;5020942;28;20485;-50
2022/02/20 06:18:24;;;;;;;0.20;0.10;;;;;;;7.71;100.00;100085.16;5019809;28;20463;-50
2022/02/20 06:20:50;;;;;;;0.20;0.10;;;;;;;7.81;100.00;100089.34;5020702;28;20503;-50
2022/02/20 06:23:17;;;;;;;0.20;0.20;;;;;;;7.85;100.00;100090.16;5019647;28;20444;-50
2022/02/20 06:25:44;;;;;;;0.20;0.17;;;;;;;8.01;100.00;100084.50;5016153;28;20456;-50
2022/02/20 06:28:11;;;;;;;0.20;0.10;;;;;;;7.92;100.00;100105.00;5019847;28;20476;-50
2022/02/20 06:30:37;;;;;;;0.30;0.20;;;;;;;7.93;100.00;100112.91;5019977;28;20488;-50
2022/02/20 06:33:04;;;;;;;0.20;0.10;;;;;;;7.96;100.00;100111.97;5020056;28;20552;-50
2022/02/20 06:35:31;;;;;;;0.20;0.10;;;;;;;7.97;100.00;100111.94;5025492;28;20937;-50
2022/02/20 06:37:58;;;;;;;0.20;0.20;;;;;;;8.02;100.00;100118.00;5021413;28;20550;-50
2022/02/20 06:40:24;;;;;;;0.30;0.20;;;;;;;7.99;100.00;100120.72;5026809;28;20498;-50
2022/02/20 06:42:51;;;;;;;0.27;0.20;;;;;;;7.94;100.00;100113.75;5020854;28;20448;-55
2022/02/20 06:45:18;;;;;;;0.20;0.10;;;;;;;7.94;100.00;100114.63;5029365;28;20455;-50
2022/02/20 06:47:44;;;;;;;0.30;0.20;;;;;;;8.07;100.00;100124.97;5020694;28;20480;-50
2022/02/20 06:50:11;;;;;;;0.30;0.20;;;;;;;8.06;100.00;100120.59;5017234;28;21005;-50
2022/02/20 06:52:38;;;;;;;0.20;0.10;;;;;;;7.98;100.00;100116.34;5027991;28;20533;-50
2022/02/20 06:55:04;;;;;;;0.20;0.10;;;;;;;8.16;100.00;100124.78;5026780;28;20509;-50
2022/02/20 06:57:35;;;;;;;0.20;0.10;;;;;;;8.15;100.00;100123.03;5012309;28;20461;-50
2022/02/20 07:00:10;;;;;;;0.30;0.20;;;;;;;8.15;100.00;100131.00;5028296;28;20502;-50
2022/02/20 07:02:38;;;;;;;0.20;0.10;;;;;;;8.18;100.00;100125.63;5028060;28;20446;-50
2022/02/20 07:05:06;;;;;;;0.20;0.10;;;;;;;8.27;100.00;100122.78;5018149;28;20455;-50
2022/02/20 07:07:33;;;;;;;0.30;0.20;;;;;;;8.27;100.00;100115.72;5021130;28;20526;-50
2022/02/20 07:10:00;;;;;;;0.23;0.20;;;;;;;8.29;100.00;100110.38;5025825;28;20449;-50
2022/02/20 07:12:29;;;;;;;0.20;0.10;;;;;;;8.26;100.00;100106.03;5013033;28;20453;-50
2022/02/20 07:14:56;;;;;;;0.20;0.10;;;;;;;8.28;100.00;100101.56;5017348;28;20467;-50
2022/02/20 07:17:23;;;;;;;0.30;0.20;;;;;;;8.40;100.00;100108.41;5021018;28;20504;-50
2022/02/20 07:19:50;;;;;;;0.60;0.60;;;;;;;8.31;100.00;100108.56;5012504;28;20988;-50
2022/02/20 07:22:16;;;;;;;0.20;0.20;;;;;;;8.35;100.00;100104.09;5015820;28;20453;-50
2022/02/20 07:24:43;;;;;;;0.20;0.10;;;;;;;8.39;100.00;100101.34;5017294;28;20474;-50
2022/02/20 07:27:10;;;;;;;0.20;0.20;;;;;;;8.44;100.00;100099.47;5020867;28;20476;-51
2022/02/20 07:29:36;;;;;;;0.20;0.10;;;;;;;8.44;100.00;100095.94;5017519;28;20448;-51
2022/02/20 07:32:03;;;;;;;0.23;0.17;;;;;;;8.41;100.00;100107.50;5026427;28;20506;-50
2022/02/20 07:34:30;;;;;;;0.20;0.10;;;;;;;8.47;100.00;100102.03;5013654;28;20834;-50
2022/02/20 07:36:56;;;;;;;0.30;0.10;;;;;;;8.48;100.00;100108.22;5030085;28;20506;-50
2022/02/20 07:39:23;;;;;;;0.30;0.10;;;;;;;8.52;100.00;100097.53;5013767;28;21028;-50
2022/02/20 07:41:49;;;;;;;0.27;0.17;;;;;;;8.46;100.00;100102.06;5022237;28;20898;-50
2022/02/20 07:44:16;;;;;;;0.20;0.10;;;;;;;8.58;100.00;100099.16;5016241;28;20440;-50
2022/02/20 07:46:43;;;;;;;0.30;0.10;;;;;;;8.30;100.00;100102.41;5045149;28;20467;-50
2022/02/20 07:49:10;;;;;;;0.30;0.20;;;;;;;8.41;100.00;100096.91;5014387;28;20456;-50
2022/02/20 07:51:36;;;;;;;0.30;0.20;;;;;;;8.38;100.00;100098.75;5018648;28;20509;-50
2022/02/20 07:54:03;;;;;;;0.20;0.10;;;;;;;8.47;100.00;100109.97;5019199;28;20549;-50
2022/02/20 07:56:29;;;;;;;0.20;0.20;;;;;;;8.35;100.00;100096.16;5037125;28;20487;-50
2022/02/20 07:58:56;;;;;;;0.20;0.10;;;;;;;8.39;100.00;100108.44;5032021;28;20447;-50
2022/02/20 08:01:23;;;;;;;0.20;0.20;;;;;;;8.47;100.00;100109.13;5031302;28;20455;-50
2022/02/20 08:03:49;;;;;;;0.20;0.10;;;;;;;8.54;100.00;100108.94;5024829;28;20445;-50
2022/02/20 08:06:16;;;;;;;0.30;0.20;;;;;;;8.44;100.00;100096.81;5024278;28;20865;-50
2022/02/20 08:08:43;;;;;;;0.20;0.20;;;;;;;8.59;100.00;100091.16;5024729;28;20507;-50
2022/02/20 08:11:09;;;;;;;0.30;0.20;;;;;;;8.62;100.00;100087.56;5016194;28;20448;-50
2022/02/20 08:13:36;;;;;;;0.20;0.20;;;;;;;8.50;100.00;100094.03;5028074;28;20488;-49
2022/02/20 08:16:03;;;;;;;0.20;0.10;;;;;;;8.49;100.00;100091.41;5014596;28;20502;-50
2022/02/20 08:18:29;;;;;;;0.20;0.10;;;;;;;8.47;100.00;100094.09;5023351;28;20500;-50
2022/02/20 08:20:56;;;;;;;0.30;0.10;;;;;;;8.51;100.00;100102.88;5021415;28;20487;-50
2022/02/20 08:23:41;;;;;;;0.20;0.20;;;;;;;8.54;100.00;100095.72;5015894;28;20447;-51
2022/02/20 08:26:07;;;;;;;0.20;0.20;;;;;;;8.49;100.00;100096.69;5022632;28;21031;-50
2022/02/20 08:28:34;;;;;;;0.20;0.10;;;;;;;8.59;100.00;100101.75;5021596;28;20455;-50
2022/02/20 08:31:00;;;;;;;0.20;0.20;;;;;;;8.54;100.00;100094.84;5017946;28;20842;-51
2022/02/20 08:33:27;;;;;;;0.20;0.20;;;;;;;8.56;100.00;100099.19;5015407;28;20542;-50
2022/02/20 08:36:13;;;;;;;0.20;0.10;;;;;;;8.46;100.00;100087.06;5019873;28;20457;-50
2022/02/20 08:38:41;;;;;;;0.20;0.20;;;;;;;8.51;100.00;100093.13;5015364;28;20499;-50
2022/02/20 08:41:07;;;;;;;0.20;0.20;;;;;;;8.63;100.00;100088.44;5022199;28;20525;-50
2022/02/20 08:43:34;;;;;;;0.20;0.10;;;;;;;8.81;100.00;100083.56;5016311;28;20511;-51
2022/02/20 08:46:01;;;;;;;0.70;0.67;;;;;;;8.81;100.00;100078.28;5041152;28;20511;-50
2022/02/20 08:48:33;;;;;;;0.20;0.10;;;;;;;8.75;100.00;100072.25;5027242;28;20499;-50
2022/02/20 08:51:00;;;;;;;0.20;0.20;;;;;;;8.79;100.00;100065.97;5020774;28;20460;-50
2022/02/20 08:53:26;;;;;;;0.30;0.20;;;;;;;8.84;100.00;100069.38;5033370;28;20515;-50
2022/02/20 08:55:53;;;;;;;0.20;0.10;;;;;;;9.01;100.00;100067.16;5015216;28;20575;-51
2022/02/20 08:58:19;;;;;;;0.30;0.20;;;;;;;8.99;100.00;100065.47;5028066;28;20468;-51
2022/02/20 09:00:46;;;;;;;0.20;0.20;;;;;;;9.07;100.00;100066.13;5026450;28;20875;-51
2022/02/20 09:03:13;;;;;;;0.30;0.10;;;;;;;8.98;100.00;100061.94;5024767;28;20494;-50
2022/02/20 09:05:39;;;;;;;0.20;0.10;;;;;;;9.10;100.00;100056.31;5022275;28;20822;-50
2022/02/20 09:08:06;;;;;;;0.20;0.10;;;;;;;9.14;100.00;100046.50;5031079;28;20475;-51
2022/02/20 09:10:33;;;;;;;0.30;0.20;;;;;;;9.10;100.00;100053.66;5028867;28;20455;-50
2022/02/20 09:12:59;;;;;;;0.30;0.20;;;;;;;9.13;100.00;100061.53;5019954;28;20519;-50
2022/02/20 09:15:26;;;;;;;0.30;0.17;;;;;;;9.12;100.00;100059.78;5027554;28;20447;-50
2022/02/20 09:17:52;;;;;;;0.30;0.10;;;;;;;9.12;100.00;100057.16;5021242;28;20503;-50
2022/02/20 09:20:20;;;;;;;0.30;0.20;;;;;;;9.18;100.00;100025.19;5028428;28;20480;-51
2022/02/20 09:22:47;;;;;;;0.30;0.10;;;;;;;9.14;100.00;100049.16;5034014;28;20491;-51
2022/02/20 09:25:14;;;;;;;0.30;0.10;;;;;;;9.04;100.00;100051.16;5025796;28;20872;-50
2022/02/20 09:27:42;;;;;;;0.30;0.20;;;;;;;9.11;100.00;100055.41;5029853;28;20511;-50
2022/02/20 09:30:09;;;;;;;0.30;0.20;;;;;;;9.13;100.00;100042.97;5016762;28;20531;-50
2022/02/20 09:32:36;;;;;;;0.30;0.20;;;;;;;9.18;100.00;100037.53;5015484;28;20453;-50
2022/02/20 09:35:03;;;;;;;0.30;0.20;;;;;;;9.23;100.00;100045.38;5025169;28;20542;-50
2022/02/20 09:37:30;;;;;;;0.30;0.30;;;;;;;9.20;100.00;100051.66;5031561;28;20566;-50
2022/02/20 09:39:56;;;;;;;0.30;0.20;;;;;;;9.24;100.00;100063.03;5014295;28;20473;-50
2022/02/20 09:42:23;;;;;;;0.20;0.10;;;;;;;9.11;100.00;100042.16;5027651;28;20467;-50
2022/02/20 09:44:50;;;;;;;0.30;0.20;;;;;;;9.15;100.00;100058.84;5021474;28;20452;-50
2022/02/20 09:47:17;;;;;;;0.30;0.20;;;;;;;9.14;100.00;100046.50;5043242;28;20523;-50
2022/02/20 09:49:45;;;;;;;0.20;0.20;;;;;;;9.25;100.00;100051.50;5024056;28;20451;-50
2022/02/20 09:52:12;;;;;;;0.30;0.20;;;;;;;9.27;100.00;100060.28;5032037;28;20487;-50
2022/02/20 09:54:38;;;;;;;0.30;0.20;;;;;;;9.37;100.00;100049.41;5030627;28;20520;-50
2022/02/20 09:57:05;;;;;;;0.30;0.20;;;;;;;9.31;100.00;100044.25;5018588;28;20476;-50
2022/02/20 09:59:32;;;;;;;0.30;0.20;;;;;;;9.33;100.00;100042.44;5022536;28;20503;-50
2022/02/20 10:02:05;;;;;;;0.23;0.20;;;;;;;9.24;100.00;100034.72;5018726;28;20451;-50
2022/02/20 10:04:51;;;;;;;0.30;0.20;;;;;;;9.31;100.00;100030.13;5019398;28;20460;-50
2022/02/20 10:07:27;;;;;;;0.30;0.20;;;;;;;9.39;100.00;100033.44;5026264;28;20522;-50
2022/02/20 10:09:54;;;;;;;0.20;0.10;;;;;;;9.51;100.00;100019.84;5027179;28;20452;-51
2022/02/20 10:12:24;;;;;;;0.30;0.20;;;;;;;9.48;100.00;100002.22;5013739;28;20476;-50
2022/02/20 10:14:51;;;;;;;0.30;0.20;;;;;;;9.43;100.00;99995.28;5030312;28;20483;-50
2022/02/20 10:17:21;;;;;;;0.30;0.20;;;;;;;9.55;100.00;99994.06;5033172;28;20476;-50
2022/02/20 10:19:55;;;;;;;0.30;0.20;;;;;;;9.59;100.00;99985.97;5023365;28;20448;-50
2022/02/20 10:22:35;;;;;;;0.30;0.20;;;;;;;9.62;100.00;99983.25;5022590;28;20451;-50
2022/02/20 10:25:09;;;;;;;0.30;0.20;;;;;;;9.69;100.00;99974.16;5031733;28;20802;-50
2022/02/20 10:27:47;;;;;;;0.30;0.20;;;;;;;9.70;100.00;99961.78;5031536;28;20549;-50
2022/02/20 10:30:17;;;;;;;0.30;0.20;;;;;;;9.88;100.00;99945.31;5020384;28;20509;-50
2022/02/20 10:33:02;;;;;;;0.30;0.20;;;;;;;10.00;100.00;99957.28;5031606;28;20459;-50
2022/02/20 10:35:33;;;;;;;0.30;0.20;;;;;;;10.13;100.00;99969.25;5025349;28;20540;-50
2022/02/20 10:38:10;;;;;;;0.30;0.20;;;;;;;10.02;100.00;99977.59;5020674;28;20529;-51
2022/02/20 10:40:37;;;;;;;0.30;0.20;;;;;;;10.14;100.00;99980.75;5028535;28;20491;-49
2022/02/20 10:43:07;;;;;;;0.30;0.20;;;;;;;9.89;100.00;99967.41;5025212;28;20456;-50
2022/02/20 10:45:39;;;;;;;0.30;0.20;;;;;;;9.93;100.00;99980.53;5036151;28;20453;-50
2022/02/20 10:48:19;;;;;;;0.30;0.20;;;;;;;10.00;100.00;99954.63;5030535;28;20468;-48
2022/02/20 10:50:56;;;;;;;0.30;0.20;;;;;;;10.05;100.00;99964.22;5025039;28;21023;-48
2022/02/20 10:53:30;;;;;;;0.30;0.20;;;;;;;9.84;100.00;99971.97;5025938;28;20471;-47
2022/02/20 10:56:01;;;;;;;0.30;0.20;;;;;;;9.93;100.00;99961.06;5031462;28;20574;-49
2022/02/20 10:58:30;;;;;;;0.30;0.20;;;;;;;10.04;100.00;99961.63;5026176;28;20488;-50
2022/02/20 11:00:58;;;;;;;0.30;0.20;;;;;;;9.98;100.00;99964.44;5015170;28;20524;-50
2022/02/20 11:03:30;;;;;;;0.30;0.17;;;;;;;10.03;100.00;99942.16;5015876;28;20551;-49
2022/02/20 11:05:58;;;;;;;0.30;0.20;;;;;;;10.01;100.00;99937.81;5032199;28;20455;-49
2022/02/20 11:08:27;;;;;;;0.30;0.20;;;;;;;9.98;100.00;99932.59;5027682;28;20473;-48
2022/02/20 11:10:55;;;;;;;0.30;0.20;;;;;;;10.12;100.00;99934.78;5021599;28;20456;-49
2022/02/20 11:13:22;;;;;;;0.30;0.17;;;;;;;10.16;100.00;99945.28;5030766;28;20452;-49
2022/02/20 11:15:54;;;;;;;0.30;0.10;;;;;;;10.10;100.00;99935.72;5031026;28;20551;-48
2022/02/20 11:18:22;;;;;;;0.30;0.20;;;;;;;10.16;100.00;99913.41;5025613;28;20505;-49
2022/02/20 11:20:51;;;;;;;0.30;0.20;;;;;;;10.31;100.00;99920.91;5013880;28;20453;-50
2022/02/20 11:23:26;;;;;;;0.30;0.20;;;;;;;10.32;100.00;99929.75;5017358;28;20490;-50
2022/02/20 11:25:56;;;;;;;0.30;0.17;;;;;;;10.45;100.00;99925.75;5021521;28;20495;-50
2022/02/20 11:28:23;;;;;;;0.30;0.17;;;;;;;10.53;100.00;99936.09;5027111;28;20475;-49
2022/02/20 11:30:50;;;;;;;0.30;0.20;;;;;;;10.45;100.00;99944.34;5024822;28;20452;-48
2022/02/20 11:33:18;;;;;;;0.30;0.20;;;;;;;10.51;100.00;99952.09;5023530;28;20471;-49
2022/02/20 11:35:52;;;;;;;0.30;0.20;;;;;;;10.49;100.00;99927.38;5027880;28;20544;-50
2022/02/20 11:38:21;;;;;;;0.30;0.10;;;;;;;10.55;100.00;99931.59;5025652;28;21004;-49